Aviation Digital Data Service (ADDS)

Output produced by METARs form (1840 UTC 18 June 2019)
found at http://www.aviationweather.gov/metar/data/
 
LQBK 181830Z VRB02KT CAVOK 22/16 Q1014 NOSIG
TAF COR LQBK 181700Z 1818/1918 VRB02KT CAVOK TX28/1913Z TN17/1903Z 
     PROB30 
     TEMPO 1903/1905 3000 BR BKN005 
     PROB40 
     TEMPO 1911/1918 VRB15KT 4000 TSRA FEW035CB BKN045
       
LQMO 181800Z VRB02KT 9999 FEW030 SCT050 24/20 Q1012
TAF LQMO 181700Z 1818/1918 03006KT CAVOK TX33/1913Z TN18/1903Z 
     PROB30 
     TEMPO 1912/1917 VRB15KT TSRA FEW030CB SCT040
       
LQSA 181830Z 13004KT 090V160 CAVOK 20/16 Q1016 NOSIG
TAF LQSA 181700Z 1818/1918 VRB02KT 9999 SCT040 TX31/1912Z TN16/1903Z 
     TEMPO 1911/1918 VRB12KT TS FEW030CB SCT050
       
LQTZ 181830Z 10005KT 9999 FEW040TCU 23/17 Q1015
TAF LQTZ 181700Z 1818/1918 VRB02KT 9999 SCT040 TX30/1913Z TN17/1903Z 
     PROB30 
     TEMPO 1818/1820 VRB15KT 4000 TSRA FEW010 FEW035CB BKN045 
     PROB40 
     TEMPO 1902/1906 2000 BR BKN005 
     PROB30 
     TEMPO 1903/1905 0400 FG BKN001